Skip Navigation Links
NOAA logo - Click to go to the NOAA homepage
NOAA's National Weather Service
Alaska Aviation Weather Unit
  NWS logo - Click to go to the NWS homepage
Left Navbar Graphic     02 AKDT = 10 GMT

   
NOAA is celebrating 200 years of science, service, and stewardship. Visit the NOAA 200th celebration Web site to learn more.
USA.gov is the U.S. Government's official Web portal to all Federal, state and local government Web resources and services.
Facebook
NWS on Facebook

AAWU Home :: Display TAF Add Bookmark
METAR PAHC 270456Z AUTO VRB05KT 10SM CLR M07/M16 A2978 RMK AO2 SLP089
     T10671156 FZRANO PNO $=

METAR PAHC 270556Z AUTO 01006KT 10SM CLR M08/M16 A2977 RMK AO2 SLP086
     6//// T10781161 11039 21078 58007 FZRANO PNO $=

METAR PAHC 270656Z AUTO VRB04KT 10SM CLR M08/M17 A2977 RMK AO2
 SLP084 T10831167 FZRANO PNO $=

METAR PAHC 270756Z AUTO 34011G16KT 10SM CLR M08/M17 A2976 RMK AO2 SLP083
     T10831167 FZRANO PNO $=

METAR PAHC 270856Z AUTO 33012G17KT 10SM CLR M08/M17 A2975 RMK AO2 SLP080
     6//// T10831172 410391144 58006 FZRANO PNO $=

METAR PAHC 270956Z AUTO 34013G20KT 10SM CLR M09/M17 A2974 RMK AO2 SLP077
     T10941172 FZRANO PNO $=


NOAA's National Weather Service
Alaska Aviation Weather Unit
6930 Sand Lake Road
Anchorage, AK 99502-1845
Disclaimer
Credits
Glossary
Privacy Policy
About Us
Career Opportunities
Contact AAWU Internet Services Site last modified: April, 17th 2012